sensor_id;sensor_type;location;lat;lon;timestamp;P1;durP1;ratioP1;P2;durP2;ratioP2
287;SDS011;128;48.770;9.198;2023-06-10T00:00:39;19.73;;;6.70;;
287;SDS011;128;48.770;9.198;2023-06-10T00:03:08;8.67;;;6.90;;
287;SDS011;128;48.770;9.198;2023-06-10T00:05:35;15.33;;;6.40;;
287;SDS011;128;48.770;9.198;2023-06-10T00:08:03;12.67;;;6.80;;
287;SDS011;128;48.770;9.198;2023-06-10T00:10:35;12.70;;;6.03;;
287;SDS011;128;48.770;9.198;2023-06-10T00:13:01;8.20;;;5.83;;
287;SDS011;128;48.770;9.198;2023-06-10T00:15:28;8.40;;;5.83;;
287;SDS011;128;48.770;9.198;2023-06-10T00:17:54;10.37;;;6.33;;
287;SDS011;128;48.770;9.198;2023-06-10T00:20:20;8.50;;;6.10;;
287;SDS011;128;48.770;9.198;2023-06-10T00:22:50;10.67;;;5.57;;
287;SDS011;128;48.770;9.198;2023-06-10T00:25:17;13.30;;;6.97;;
287;SDS011;128;48.770;9.198;2023-06-10T00:27:43;9.60;;;5.50;;
287;SDS011;128;48.770;9.198;2023-06-10T00:30:09;10.17;;;6.83;;
287;SDS011;128;48.770;9.198;2023-06-10T00:32:35;9.63;;;7.30;;
287;SDS011;128;48.770;9.198;2023-06-10T00:35:02;10.57;;;7.00;;
287;SDS011;128;48.770;9.198;2023-06-10T00:37:28;10.27;;;6.90;;
287;SDS011;128;48.770;9.198;2023-06-10T00:39:55;11.83;;;7.03;;
287;SDS011;128;48.770;9.198;2023-06-10T00:42:21;16.23;;;7.23;;
287;SDS011;128;48.770;9.198;2023-06-10T00:44:49;9.90;;;6.60;;
287;SDS011;128;48.770;9.198;2023-06-10T00:47:15;9.67;;;5.83;;
287;SDS011;128;48.770;9.198;2023-06-10T00:49:41;12.80;;;6.80;;
287;SDS011;128;48.770;9.198;2023-06-10T00:52:07;10.03;;;5.97;;
287;SDS011;128;48.770;9.198;2023-06-10T00:54:35;10.33;;;7.20;;
287;SDS011;128;48.770;9.198;2023-06-10T00:57:01;10.73;;;7.03;;
287;SDS011;128;48.770;9.198;2023-06-10T00:59:30;13.53;;;6.80;;
287;SDS011;128;48.770;9.198;2023-06-10T01:01:56;14.17;;;7.10;;
287;SDS011;128;48.770;9.198;2023-06-10T01:04:22;9.77;;;6.60;;
287;SDS011;128;48.770;9.198;2023-06-10T01:09:42;8.07;;;6.13;;
287;SDS011;128;48.770;9.198;2023-06-10T01:12:11;9.23;;;6.20;;
287;SDS011;128;48.770;9.198;2023-06-10T01:14:39;12.47;;;6.37;;
287;SDS011;128;48.770;9.198;2023-06-10T01:17:09;11.00;;;6.63;;
287;SDS011;128;48.770;9.198;2023-06-10T01:19:35;11.63;;;6.67;;
287;SDS011;128;48.770;9.198;2023-06-10T01:22:02;9.10;;;6.60;;
287;SDS011;128;48.770;9.198;2023-06-10T01:24:28;8.73;;;5.83;;
287;SDS011;128;48.770;9.198;2023-06-10T01:26:57;7.87;;;6.40;;
287;SDS011;128;48.770;9.198;2023-06-10T01:29:30;10.30;;;6.13;;
287;SDS011;128;48.770;9.198;2023-06-10T01:32:02;9.77;;;6.03;;
287;SDS011;128;48.770;9.198;2023-06-10T01:34:29;8.03;;;5.70;;
287;SDS011;128;48.770;9.198;2023-06-10T01:36:56;10.40;;;6.73;;
287;SDS011;128;48.770;9.198;2023-06-10T01:39:24;12.90;;;6.37;;
287;SDS011;128;48.770;9.198;2023-06-10T01:41:50;12.80;;;6.50;;
287;SDS011;128;48.770;9.198;2023-06-10T01:44:22;10.07;;;6.77;;
287;SDS011;128;48.770;9.198;2023-06-10T01:46:49;11.17;;;7.13;;
287;SDS011;128;48.770;9.198;2023-06-10T01:49:15;11.20;;;7.10;;
287;SDS011;128;48.770;9.198;2023-06-10T01:51:41;10.80;;;5.73;;
287;SDS011;128;48.770;9.198;2023-06-10T01:54:07;9.87;;;6.50;;
287;SDS011;128;48.770;9.198;2023-06-10T01:56:33;10.07;;;6.70;;
287;SDS011;128;48.770;9.198;2023-06-10T01:58:59;9.53;;;6.70;;
287;SDS011;128;48.770;9.198;2023-06-10T02:01:25;10.17;;;6.53;;
287;SDS011;128;48.770;9.198;2023-06-10T02:03:51;14.40;;;7.17;;
287;SDS011;128;48.770;9.198;2023-06-10T02:06:18;12.83;;;7.13;;
287;SDS011;128;48.770;9.198;2023-06-10T02:08:44;12.10;;;7.07;;
287;SDS011;128;48.770;9.198;2023-06-10T02:11:09;10.10;;;7.60;;
287;SDS011;128;48.770;9.198;2023-06-10T02:13:35;10.23;;;6.57;;
287;SDS011;128;48.770;9.198;2023-06-10T02:16:01;8.73;;;6.53;;
287;SDS011;128;48.770;9.198;2023-06-10T02:18:27;10.27;;;6.80;;
287;SDS011;128;48.770;9.198;2023-06-10T02:20:53;9.07;;;6.67;;
287;SDS011;128;48.770;9.198;2023-06-10T02:23:19;10.97;;;7.13;;
287;SDS011;128;48.770;9.198;2023-06-10T02:25:45;10.30;;;7.37;;
287;SDS011;128;48.770;9.198;2023-06-10T02:28:13;9.93;;;7.00;;
287;SDS011;128;48.770;9.198;2023-06-10T02:30:42;14.20;;;8.20;;
287;SDS011;128;48.770;9.198;2023-06-10T02:33:08;11.13;;;7.63;;
287;SDS011;128;48.770;9.198;2023-06-10T02:35:38;11.00;;;6.77;;
287;SDS011;128;48.770;9.198;2023-06-10T02:38:04;8.90;;;6.23;;
287;SDS011;128;48.770;9.198;2023-06-10T02:40:30;10.57;;;6.77;;
287;SDS011;128;48.770;9.198;2023-06-10T02:42:57;7.83;;;5.60;;
287;SDS011;128;48.770;9.198;2023-06-10T02:45:23;13.50;;;7.47;;
287;SDS011;128;48.770;9.198;2023-06-10T02:47:49;9.27;;;5.90;;
287;SDS011;128;48.770;9.198;2023-06-10T02:50:15;9.17;;;6.33;;
287;SDS011;128;48.770;9.198;2023-06-10T02:52:41;8.93;;;6.53;;
287;SDS011;128;48.770;9.198;2023-06-10T02:55:07;8.20;;;6.07;;
287;SDS011;128;48.770;9.198;2023-06-10T02:57:33;11.33;;;6.40;;
287;SDS011;128;48.770;9.198;2023-06-10T02:59:59;8.70;;;5.60;;
287;SDS011;128;48.770;9.198;2023-06-10T03:02:26;12.17;;;6.73;;
287;SDS011;128;48.770;9.198;2023-06-10T03:04:56;11.23;;;6.23;;
287;SDS011;128;48.770;9.198;2023-06-10T03:07:22;15.50;;;6.27;;
287;SDS011;128;48.770;9.198;2023-06-10T03:09:48;11.97;;;6.90;;
287;SDS011;128;48.770;9.198;2023-06-10T03:12:14;10.57;;;7.00;;
287;SDS011;128;48.770;9.198;2023-06-10T03:14:41;10.87;;;7.43;;
287;SDS011;128;48.770;9.198;2023-06-10T03:17:06;18.47;;;8.27;;
287;SDS011;128;48.770;9.198;2023-06-10T03:19:33;11.67;;;7.50;;
287;SDS011;128;48.770;9.198;2023-06-10T03:24:35;11.10;;;6.57;;
287;SDS011;128;48.770;9.198;2023-06-10T03:27:01;13.57;;;8.07;;
287;SDS011;128;48.770;9.198;2023-06-10T03:29:29;9.93;;;6.20;;
287;SDS011;128;48.770;9.198;2023-06-10T03:31:55;8.43;;;5.70;;
287;SDS011;128;48.770;9.198;2023-06-10T03:34:21;13.90;;;7.27;;
287;SDS011;128;48.770;9.198;2023-06-10T03:36:48;11.20;;;7.20;;
287;SDS011;128;48.770;9.198;2023-06-10T03:39:14;10.23;;;5.53;;
287;SDS011;128;48.770;9.198;2023-06-10T03:41:40;9.10;;;6.30;;
287;SDS011;128;48.770;9.198;2023-06-10T03:44:06;9.47;;;6.80;;
287;SDS011;128;48.770;9.198;2023-06-10T03:46:32;11.33;;;7.47;;
287;SDS011;128;48.770;9.198;2023-06-10T03:48:58;8.07;;;5.97;;
287;SDS011;128;48.770;9.198;2023-06-10T03:51:25;9.13;;;6.67;;
287;SDS011;128;48.770;9.198;2023-06-10T03:53:51;11.83;;;6.67;;
287;SDS011;128;48.770;9.198;2023-06-10T03:56:17;8.93;;;6.53;;
287;SDS011;128;48.770;9.198;2023-06-10T03:58:43;13.00;;;6.40;;
287;SDS011;128;48.770;9.198;2023-06-10T04:01:09;8.80;;;6.10;;
287;SDS011;128;48.770;9.198;2023-06-10T04:03:35;11.70;;;6.33;;
287;SDS011;128;48.770;9.198;2023-06-10T04:06:01;9.27;;;5.97;;
287;SDS011;128;48.770;9.198;2023-06-10T04:08:27;10.70;;;6.57;;
287;SDS011;128;48.770;9.198;2023-06-10T04:10:54;10.13;;;6.60;;
287;SDS011;128;48.770;9.198;2023-06-10T04:13:19;16.00;;;6.53;;
287;SDS011;128;48.770;9.198;2023-06-10T04:15:45;10.70;;;6.50;;
287;SDS011;128;48.770;9.198;2023-06-10T04:18:11;9.17;;;6.30;;
287;SDS011;128;48.770;9.198;2023-06-10T04:20:37;12.50;;;7.17;;
287;SDS011;128;48.770;9.198;2023-06-10T04:23:03;8.17;;;6.13;;
287;SDS011;128;48.770;9.198;2023-06-10T04:25:29;10.83;;;6.93;;
287;SDS011;128;48.770;9.198;2023-06-10T04:27:55;10.10;;;7.20;;
287;SDS011;128;48.770;9.198;2023-06-10T04:30:21;8.60;;;7.00;;
287;SDS011;128;48.770;9.198;2023-06-10T04:32:47;9.17;;;6.90;;
287;SDS011;128;48.770;9.198;2023-06-10T04:35:15;11.23;;;7.30;;
287;SDS011;128;48.770;9.198;2023-06-10T04:37:41;10.37;;;6.57;;
287;SDS011;128;48.770;9.198;2023-06-10T04:40:08;7.40;;;5.73;;
287;SDS011;128;48.770;9.198;2023-06-10T04:42:34;16.10;;;7.23;;
287;SDS011;128;48.770;9.198;2023-06-10T04:45:00;14.80;;;7.90;;
287;SDS011;128;48.770;9.198;2023-06-10T04:47:27;10.40;;;7.33;;
287;SDS011;128;48.770;9.198;2023-06-10T04:49:53;8.90;;;5.57;;
287;SDS011;128;48.770;9.198;2023-06-10T04:52:19;9.70;;;6.57;;
287;SDS011;128;48.770;9.198;2023-06-10T04:54:45;9.73;;;6.70;;
287;SDS011;128;48.770;9.198;2023-06-10T04:57:12;9.67;;;6.20;;
287;SDS011;128;48.770;9.198;2023-06-10T04:59:38;9.60;;;6.43;;
287;SDS011;128;48.770;9.198;2023-06-10T05:02:04;12.57;;;6.93;;
287;SDS011;128;48.770;9.198;2023-06-10T05:04:30;12.73;;;7.43;;
287;SDS011;128;48.770;9.198;2023-06-10T05:06:56;16.93;;;6.70;;
287;SDS011;128;48.770;9.198;2023-06-10T05:09:22;10.07;;;7.17;;
287;SDS011;128;48.770;9.198;2023-06-10T05:11:48;8.70;;;5.87;;
287;SDS011;128;48.770;9.198;2023-06-10T05:14:14;12.90;;;7.27;;
287;SDS011;128;48.770;9.198;2023-06-10T05:16:41;8.40;;;5.53;;
287;SDS011;128;48.770;9.198;2023-06-10T05:19:08;11.03;;;6.30;;
287;SDS011;128;48.770;9.198;2023-06-10T05:21:34;9.23;;;6.50;;
287;SDS011;128;48.770;9.198;2023-06-10T05:24:00;8.23;;;5.80;;
287;SDS011;128;48.770;9.198;2023-06-10T05:26:27;10.77;;;6.20;;
287;SDS011;128;48.770;9.198;2023-06-10T05:28:53;8.17;;;6.00;;
287;SDS011;128;48.770;9.198;2023-06-10T05:31:19;10.57;;;5.93;;
287;SDS011;128;48.770;9.198;2023-06-10T05:33:45;8.87;;;5.97;;
287;SDS011;128;48.770;9.198;2023-06-10T05:36:11;9.13;;;6.10;;
287;SDS011;128;48.770;9.198;2023-06-10T05:38:37;10.00;;;6.30;;
287;SDS011;128;48.770;9.198;2023-06-10T05:41:03;10.43;;;6.30;;
287;SDS011;128;48.770;9.198;2023-06-10T05:43:29;9.00;;;6.50;;
287;SDS011;128;48.770;9.198;2023-06-10T05:45:55;8.10;;;5.50;;
287;SDS011;128;48.770;9.198;2023-06-10T05:48:21;12.27;;;6.50;;
287;SDS011;128;48.770;9.198;2023-06-10T05:50:47;17.33;;;6.10;;
287;SDS011;128;48.770;9.198;2023-06-10T05:53:14;9.60;;;6.47;;
287;SDS011;128;48.770;9.198;2023-06-10T05:55:43;10.03;;;6.10;;
287;SDS011;128;48.770;9.198;2023-06-10T05:58:10;9.43;;;6.37;;
287;SDS011;128;48.770;9.198;2023-06-10T06:00:37;12.30;;;7.10;;
287;SDS011;128;48.770;9.198;2023-06-10T06:03:03;15.93;;;6.90;;
287;SDS011;128;48.770;9.198;2023-06-10T06:05:29;11.40;;;6.70;;
287;SDS011;128;48.770;9.198;2023-06-10T06:08:00;9.57;;;6.37;;
287;SDS011;128;48.770;9.198;2023-06-10T06:10:26;10.70;;;7.10;;
287;SDS011;128;48.770;9.198;2023-06-10T06:12:52;10.03;;;6.73;;
287;SDS011;128;48.770;9.198;2023-06-10T06:15:18;10.37;;;6.80;;
287;SDS011;128;48.770;9.198;2023-06-10T06:17:44;11.73;;;7.03;;
287;SDS011;128;48.770;9.198;2023-06-10T06:20:10;12.87;;;6.97;;
287;SDS011;128;48.770;9.198;2023-06-10T06:22:36;10.70;;;6.33;;
287;SDS011;128;48.770;9.198;2023-06-10T06:25:02;12.13;;;6.20;;
287;SDS011;128;48.770;9.198;2023-06-10T06:27:28;13.13;;;6.07;;
287;SDS011;128;48.770;9.198;2023-06-10T06:29:54;10.30;;;6.93;;
287;SDS011;128;48.770;9.198;2023-06-10T06:32:20;12.97;;;5.50;;
287;SDS011;128;48.770;9.198;2023-06-10T06:34:47;7.80;;;5.53;;
287;SDS011;128;48.770;9.198;2023-06-10T06:37:18;8.80;;;5.60;;
287;SDS011;128;48.770;9.198;2023-06-10T06:39:44;7.40;;;5.63;;
287;SDS011;128;48.770;9.198;2023-06-10T06:42:10;10.43;;;5.67;;
287;SDS011;128;48.770;9.198;2023-06-10T06:44:36;9.23;;;6.47;;
287;SDS011;128;48.770;9.198;2023-06-10T06:47:02;10.50;;;6.27;;
287;SDS011;128;48.770;9.198;2023-06-10T06:49:28;7.93;;;5.27;;
287;SDS011;128;48.770;9.198;2023-06-10T06:51:55;9.17;;;5.77;;
287;SDS011;128;48.770;9.198;2023-06-10T06:54:20;7.93;;;5.23;;
287;SDS011;128;48.770;9.198;2023-06-10T06:56:46;9.33;;;5.87;;
287;SDS011;128;48.770;9.198;2023-06-10T06:59:12;7.90;;;5.60;;
287;SDS011;128;48.770;9.198;2023-06-10T07:01:39;9.30;;;6.60;;
287;SDS011;128;48.770;9.198;2023-06-10T07:04:05;9.33;;;5.60;;
287;SDS011;128;48.770;9.198;2023-06-10T07:06:30;8.00;;;5.20;;
287;SDS011;128;48.770;9.198;2023-06-10T07:08:56;8.27;;;6.57;;
287;SDS011;128;48.770;9.198;2023-06-10T07:11:22;8.50;;;5.70;;
287;SDS011;128;48.770;9.198;2023-06-10T07:13:48;11.40;;;6.30;;
287;SDS011;128;48.770;9.198;2023-06-10T07:16:14;8.67;;;5.80;;
287;SDS011;128;48.770;9.198;2023-06-10T07:18:40;13.33;;;6.67;;
287;SDS011;128;48.770;9.198;2023-06-10T07:21:06;9.30;;;5.90;;
287;SDS011;128;48.770;9.198;2023-06-10T07:23:32;7.23;;;5.33;;
287;SDS011;128;48.770;9.198;2023-06-10T07:25:58;7.77;;;5.73;;
287;SDS011;128;48.770;9.198;2023-06-10T07:28:24;8.70;;;5.80;;
287;SDS011;128;48.770;9.198;2023-06-10T07:30:50;7.83;;;5.67;;
287;SDS011;128;48.770;9.198;2023-06-10T07:33:16;13.90;;;6.20;;
287;SDS011;128;48.770;9.198;2023-06-10T07:35:42;7.87;;;5.93;;
287;SDS011;128;48.770;9.198;2023-06-10T07:38:08;10.43;;;5.30;;
287;SDS011;128;48.770;9.198;2023-06-10T07:40:34;12.13;;;5.80;;
287;SDS011;128;48.770;9.198;2023-06-10T07:43:00;7.83;;;6.07;;
287;SDS011;128;48.770;9.198;2023-06-10T07:45:26;8.20;;;5.80;;
287;SDS011;128;48.770;9.198;2023-06-10T07:47:52;7.57;;;4.90;;
287;SDS011;128;48.770;9.198;2023-06-10T07:50:18;7.83;;;5.87;;
287;SDS011;128;48.770;9.198;2023-06-10T07:52:44;8.07;;;5.47;;
287;SDS011;128;48.770;9.198;2023-06-10T07:55:09;9.40;;;5.63;;
287;SDS011;128;48.770;9.198;2023-06-10T07:57:35;10.60;;;6.00;;
287;SDS011;128;48.770;9.198;2023-06-10T08:00:03;13.47;;;6.20;;
287;SDS011;128;48.770;9.198;2023-06-10T08:02:29;11.77;;;6.77;;
287;SDS011;128;48.770;9.198;2023-06-10T08:04:55;8.00;;;5.70;;
287;SDS011;128;48.770;9.198;2023-06-10T08:07:21;9.73;;;5.70;;
287;SDS011;128;48.770;9.198;2023-06-10T08:09:47;9.73;;;6.23;;
287;SDS011;128;48.770;9.198;2023-06-10T08:12:13;8.73;;;5.67;;
287;SDS011;128;48.770;9.198;2023-06-10T08:14:40;10.90;;;6.40;;
287;SDS011;128;48.770;9.198;2023-06-10T08:17:06;9.37;;;6.57;;
287;SDS011;128;48.770;9.198;2023-06-10T08:19:32;9.17;;;6.10;;
287;SDS011;128;48.770;9.198;2023-06-10T08:21:58;9.53;;;7.10;;
287;SDS011;128;48.770;9.198;2023-06-10T08:24:24;8.43;;;5.77;;
287;SDS011;128;48.770;9.198;2023-06-10T08:26:50;10.13;;;6.13;;
287;SDS011;128;48.770;9.198;2023-06-10T08:29:16;11.13;;;6.23;;
287;SDS011;128;48.770;9.198;2023-06-10T08:31:42;11.90;;;6.07;;
287;SDS011;128;48.770;9.198;2023-06-10T08:34:08;9.47;;;5.77;;
287;SDS011;128;48.770;9.198;2023-06-10T08:36:34;8.60;;;6.20;;
287;SDS011;128;48.770;9.198;2023-06-10T08:39:00;13.00;;;6.20;;
287;SDS011;128;48.770;9.198;2023-06-10T08:41:28;7.77;;;5.53;;
287;SDS011;128;48.770;9.198;2023-06-10T08:43:58;7.57;;;5.07;;
287;SDS011;128;48.770;9.198;2023-06-10T08:46:24;7.87;;;5.20;;
287;SDS011;128;48.770;9.198;2023-06-10T08:48:52;8.13;;;5.10;;
287;SDS011;128;48.770;9.198;2023-06-10T08:51:20;7.83;;;4.83;;
287;SDS011;128;48.770;9.198;2023-06-10T08:53:50;13.00;;;5.73;;
287;SDS011;128;48.770;9.198;2023-06-10T08:56:18;8.40;;;5.47;;
287;SDS011;128;48.770;9.198;2023-06-10T08:58:45;6.70;;;4.80;;
287;SDS011;128;48.770;9.198;2023-06-10T09:01:11;8.13;;;4.83;;
287;SDS011;128;48.770;9.198;2023-06-10T09:03:38;7.00;;;5.20;;
287;SDS011;128;48.770;9.198;2023-06-10T09:06:04;7.73;;;4.23;;
287;SDS011;128;48.770;9.198;2023-06-10T09:08:31;7.80;;;5.00;;
287;SDS011;128;48.770;9.198;2023-06-10T09:10:57;7.10;;;4.83;;
287;SDS011;128;48.770;9.198;2023-06-10T09:13:23;8.13;;;4.40;;
287;SDS011;128;48.770;9.198;2023-06-10T09:15:49;7.40;;;4.00;;
287;SDS011;128;48.770;9.198;2023-06-10T09:18:16;10.40;;;5.07;;
287;SDS011;128;48.770;9.198;2023-06-10T09:20:42;8.00;;;5.50;;
287;SDS011;128;48.770;9.198;2023-06-10T09:23:09;6.47;;;4.57;;
287;SDS011;128;48.770;9.198;2023-06-10T09:25:35;5.67;;;4.60;;
287;SDS011;128;48.770;9.198;2023-06-10T09:28:02;8.10;;;5.17;;
287;SDS011;128;48.770;9.198;2023-06-10T09:30:29;7.20;;;4.40;;
287;SDS011;128;48.770;9.198;2023-06-10T09:32:55;8.50;;;5.00;;
287;SDS011;128;48.770;9.198;2023-06-10T09:35:25;6.63;;;5.03;;
287;SDS011;128;48.770;9.198;2023-06-10T09:37:51;9.23;;;5.50;;
287;SDS011;128;48.770;9.198;2023-06-10T09:40:18;7.47;;;4.90;;
287;SDS011;128;48.770;9.198;2023-06-10T09:42:43;5.83;;;4.60;;
287;SDS011;128;48.770;9.198;2023-06-10T09:45:10;6.20;;;4.60;;
287;SDS011;128;48.770;9.198;2023-06-10T09:47:36;5.43;;;4.27;;
287;SDS011;128;48.770;9.198;2023-06-10T09:50:02;8.37;;;4.80;;
287;SDS011;128;48.770;9.198;2023-06-10T09:52:28;8.60;;;4.83;;
287;SDS011;128;48.770;9.198;2023-06-10T09:54:59;11.17;;;5.37;;
287;SDS011;128;48.770;9.198;2023-06-10T09:57:25;6.80;;;5.10;;
287;SDS011;128;48.770;9.198;2023-06-10T09:59:52;7.50;;;4.90;;
287;SDS011;128;48.770;9.198;2023-06-10T10:02:19;6.90;;;4.77;;
287;SDS011;128;48.770;9.198;2023-06-10T10:04:45;6.50;;;4.90;;
287;SDS011;128;48.770;9.198;2023-06-10T10:07:11;6.90;;;5.20;;
287;SDS011;128;48.770;9.198;2023-06-10T10:09:37;7.90;;;5.07;;
287;SDS011;128;48.770;9.198;2023-06-10T10:12:10;6.70;;;5.40;;
287;SDS011;128;48.770;9.198;2023-06-10T10:14:37;8.70;;;5.10;;
287;SDS011;128;48.770;9.198;2023-06-10T10:17:14;10.90;;;5.13;;
287;SDS011;128;48.770;9.198;2023-06-10T10:19:46;7.30;;;4.70;;
287;SDS011;128;48.770;9.198;2023-06-10T10:22:15;6.93;;;4.73;;
287;SDS011;128;48.770;9.198;2023-06-10T10:24:46;10.73;;;4.83;;
287;SDS011;128;48.770;9.198;2023-06-10T10:27:17;8.50;;;6.20;;
287;SDS011;128;48.770;9.198;2023-06-10T10:29:45;5.60;;;4.30;;
287;SDS011;128;48.770;9.198;2023-06-10T10:32:11;10.30;;;5.63;;
287;SDS011;128;48.770;9.198;2023-06-10T10:37:43;6.10;;;4.70;;
287;SDS011;128;48.770;9.198;2023-06-10T10:40:10;5.97;;;4.80;;
287;SDS011;128;48.770;9.198;2023-06-10T10:42:36;12.40;;;5.00;;
287;SDS011;128;48.770;9.198;2023-06-10T10:45:04;7.67;;;4.80;;
287;SDS011;128;48.770;9.198;2023-06-10T10:47:30;6.70;;;4.70;;
287;SDS011;128;48.770;9.198;2023-06-10T10:49:56;14.80;;;7.03;;
287;SDS011;128;48.770;9.198;2023-06-10T10:52:24;8.13;;;4.37;;
287;SDS011;128;48.770;9.198;2023-06-10T10:54:52;7.03;;;4.50;;
287;SDS011;128;48.770;9.198;2023-06-10T10:57:22;6.83;;;4.73;;
287;SDS011;128;48.770;9.198;2023-06-10T11:02:33;7.33;;;4.50;;
287;SDS011;128;48.770;9.198;2023-06-10T11:05:00;7.17;;;4.90;;
287;SDS011;128;48.770;9.198;2023-06-10T11:07:26;6.37;;;4.50;;
287;SDS011;128;48.770;9.198;2023-06-10T11:09:58;7.47;;;4.20;;
287;SDS011;128;48.770;9.198;2023-06-10T11:12:25;7.63;;;4.97;;
287;SDS011;128;48.770;9.198;2023-06-10T11:14:54;7.20;;;5.03;;
287;SDS011;128;48.770;9.198;2023-06-10T11:17:21;6.07;;;4.30;;
287;SDS011;128;48.770;9.198;2023-06-10T11:19:47;8.10;;;4.77;;
287;SDS011;128;48.770;9.198;2023-06-10T11:22:16;7.17;;;4.87;;
287;SDS011;128;48.770;9.198;2023-06-10T11:24:47;6.77;;;4.80;;
287;SDS011;128;48.770;9.198;2023-06-10T11:27:20;7.23;;;5.27;;
287;SDS011;128;48.770;9.198;2023-06-10T11:32:31;6.60;;;4.30;;
287;SDS011;128;48.770;9.198;2023-06-10T11:34:57;8.67;;;4.90;;
287;SDS011;128;48.770;9.198;2023-06-10T11:37:23;5.67;;;4.50;;
287;SDS011;128;48.770;9.198;2023-06-10T11:39:55;6.20;;;4.67;;
287;SDS011;128;48.770;9.198;2023-06-10T11:42:22;6.57;;;5.13;;
287;SDS011;128;48.770;9.198;2023-06-10T11:44:49;6.50;;;5.13;;
287;SDS011;128;48.770;9.198;2023-06-10T11:47:15;7.53;;;4.40;;
287;SDS011;128;48.770;9.198;2023-06-10T11:49:41;6.30;;;4.33;;
287;SDS011;128;48.770;9.198;2023-06-10T11:52:07;9.83;;;5.27;;
287;SDS011;128;48.770;9.198;2023-06-10T11:54:33;7.70;;;5.83;;
287;SDS011;128;48.770;9.198;2023-06-10T11:56:59;7.87;;;4.80;;
287;SDS011;128;48.770;9.198;2023-06-10T11:59:28;6.10;;;4.57;;
287;SDS011;128;48.770;9.198;2023-06-10T12:01:54;10.67;;;5.40;;
287;SDS011;128;48.770;9.198;2023-06-10T12:04:20;5.57;;;4.20;;
287;SDS011;128;48.770;9.198;2023-06-10T12:06:47;6.33;;;3.67;;
287;SDS011;128;48.770;9.198;2023-06-10T12:09:14;6.77;;;4.30;;
287;SDS011;128;48.770;9.198;2023-06-10T12:11:40;10.90;;;4.93;;
287;SDS011;128;48.770;9.198;2023-06-10T12:14:06;7.90;;;4.57;;
287;SDS011;128;48.770;9.198;2023-06-10T12:16:32;5.10;;;3.80;;
287;SDS011;128;48.770;9.198;2023-06-10T12:19:02;7.20;;;4.33;;
287;SDS011;128;48.770;9.198;2023-06-10T12:21:28;5.40;;;4.00;;
287;SDS011;128;48.770;9.198;2023-06-10T12:24:07;10.67;;;4.03;;
287;SDS011;128;48.770;9.198;2023-06-10T12:26:37;4.97;;;4.10;;
287;SDS011;128;48.770;9.198;2023-06-10T12:29:22;6.63;;;3.67;;
287;SDS011;128;48.770;9.198;2023-06-10T12:31:55;5.93;;;4.57;;
287;SDS011;128;48.770;9.198;2023-06-10T12:34:32;7.10;;;5.00;;
287;SDS011;128;48.770;9.198;2023-06-10T12:37:00;5.80;;;4.43;;
287;SDS011;128;48.770;9.198;2023-06-10T12:39:26;6.73;;;4.80;;
287;SDS011;128;48.770;9.198;2023-06-10T12:41:52;7.83;;;5.30;;
287;SDS011;128;48.770;9.198;2023-06-10T12:44:18;8.20;;;4.50;;
287;SDS011;128;48.770;9.198;2023-06-10T12:46:54;8.07;;;4.20;;
287;SDS011;128;48.770;9.198;2023-06-10T12:49:20;8.90;;;4.60;;
287;SDS011;128;48.770;9.198;2023-06-10T12:51:46;5.67;;;3.80;;
287;SDS011;128;48.770;9.198;2023-06-10T12:54:13;6.50;;;4.80;;
287;SDS011;128;48.770;9.198;2023-06-10T12:56:39;6.17;;;4.30;;
287;SDS011;128;48.770;9.198;2023-06-10T12:59:05;4.80;;;3.70;;
287;SDS011;128;48.770;9.198;2023-06-10T13:01:31;8.03;;;4.30;;
287;SDS011;128;48.770;9.198;2023-06-10T13:03:58;4.97;;;3.57;;
287;SDS011;128;48.770;9.198;2023-06-10T13:06:24;4.87;;;3.87;;
287;SDS011;128;48.770;9.198;2023-06-10T13:08:50;4.13;;;3.73;;
287;SDS011;128;48.770;9.198;2023-06-10T13:11:16;4.97;;;3.17;;
287;SDS011;128;48.770;9.198;2023-06-10T13:13:42;3.60;;;3.00;;
287;SDS011;128;48.770;9.198;2023-06-10T13:16:08;4.70;;;3.13;;
287;SDS011;128;48.770;9.198;2023-06-10T13:18:34;4.70;;;3.30;;
287;SDS011;128;48.770;9.198;2023-06-10T13:21:05;6.20;;;3.67;;
287;SDS011;128;48.770;9.198;2023-06-10T13:23:31;4.90;;;3.23;;
287;SDS011;128;48.770;9.198;2023-06-10T13:25:58;3.70;;;3.30;;
287;SDS011;128;48.770;9.198;2023-06-10T13:28:24;6.53;;;3.83;;
287;SDS011;128;48.770;9.198;2023-06-10T13:30:50;5.50;;;2.93;;
287;SDS011;128;48.770;9.198;2023-06-10T13:33:16;5.33;;;3.43;;
287;SDS011;128;48.770;9.198;2023-06-10T13:35:42;3.80;;;3.07;;
287;SDS011;128;48.770;9.198;2023-06-10T13:38:08;3.70;;;3.27;;
287;SDS011;128;48.770;9.198;2023-06-10T13:40:34;7.00;;;3.60;;
287;SDS011;128;48.770;9.198;2023-06-10T13:43:00;4.77;;;2.83;;
287;SDS011;128;48.770;9.198;2023-06-10T13:45:27;4.20;;;2.57;;
287;SDS011;128;48.770;9.198;2023-06-10T13:47:53;5.37;;;2.97;;
287;SDS011;128;48.770;9.198;2023-06-10T13:50:19;4.37;;;3.80;;
287;SDS011;128;48.770;9.198;2023-06-10T13:52:45;5.17;;;4.10;;
287;SDS011;128;48.770;9.198;2023-06-10T13:55:11;5.33;;;3.47;;
287;SDS011;128;48.770;9.198;2023-06-10T13:57:37;7.73;;;3.37;;
287;SDS011;128;48.770;9.198;2023-06-10T14:00:03;5.10;;;3.80;;
287;SDS011;128;48.770;9.198;2023-06-10T14:02:29;4.90;;;3.23;;
287;SDS011;128;48.770;9.198;2023-06-10T14:04:55;5.73;;;3.60;;
287;SDS011;128;48.770;9.198;2023-06-10T14:07:21;4.63;;;2.93;;
287;SDS011;128;48.770;9.198;2023-06-10T14:09:47;4.50;;;3.30;;
287;SDS011;128;48.770;9.198;2023-06-10T14:12:13;4.50;;;2.80;;
287;SDS011;128;48.770;9.198;2023-06-10T14:14:39;4.23;;;3.50;;
287;SDS011;128;48.770;9.198;2023-06-10T14:17:05;4.80;;;3.40;;
287;SDS011;128;48.770;9.198;2023-06-10T14:19:31;4.80;;;3.10;;
287;SDS011;128;48.770;9.198;2023-06-10T14:21:57;4.20;;;3.27;;
287;SDS011;128;48.770;9.198;2023-06-10T14:24:23;2.63;;;2.53;;
287;SDS011;128;48.770;9.198;2023-06-10T14:26:49;4.03;;;3.53;;
287;SDS011;128;48.770;9.198;2023-06-10T14:29:15;5.50;;;3.30;;
287;SDS011;128;48.770;9.198;2023-06-10T14:31:42;9.40;;;3.70;;
287;SDS011;128;48.770;9.198;2023-06-10T14:34:08;4.60;;;3.27;;
287;SDS011;128;48.770;9.198;2023-06-10T14:36:34;4.90;;;3.70;;
287;SDS011;128;48.770;9.198;2023-06-10T14:39:00;3.50;;;3.00;;
287;SDS011;128;48.770;9.198;2023-06-10T14:41:26;4.63;;;3.20;;
287;SDS011;128;48.770;9.198;2023-06-10T14:43:52;5.93;;;3.17;;
287;SDS011;128;48.770;9.198;2023-06-10T14:46:18;5.80;;;3.30;;
287;SDS011;128;48.770;9.198;2023-06-10T14:48:46;5.73;;;3.43;;
287;SDS011;128;48.770;9.198;2023-06-10T14:51:12;7.10;;;3.53;;
287;SDS011;128;48.770;9.198;2023-06-10T14:53:37;6.10;;;3.53;;
287;SDS011;128;48.770;9.198;2023-06-10T14:56:04;4.10;;;3.10;;
287;SDS011;128;48.770;9.198;2023-06-10T14:58:30;4.07;;;3.53;;
287;SDS011;128;48.770;9.198;2023-06-10T15:00:56;5.50;;;4.20;;
287;SDS011;128;48.770;9.198;2023-06-10T15:03:22;6.30;;;4.07;;
287;SDS011;128;48.770;9.198;2023-06-10T15:05:47;5.77;;;3.93;;
287;SDS011;128;48.770;9.198;2023-06-10T15:08:13;6.40;;;4.33;;
287;SDS011;128;48.770;9.198;2023-06-10T15:10:40;4.57;;;3.80;;
287;SDS011;128;48.770;9.198;2023-06-10T15:13:06;7.03;;;3.90;;
287;SDS011;128;48.770;9.198;2023-06-10T15:15:32;12.93;;;3.30;;
287;SDS011;128;48.770;9.198;2023-06-10T15:17:58;8.37;;;3.97;;
287;SDS011;128;48.770;9.198;2023-06-10T15:20:24;4.33;;;3.60;;
287;SDS011;128;48.770;9.198;2023-06-10T15:22:50;4.53;;;3.47;;
287;SDS011;128;48.770;9.198;2023-06-10T15:25:16;5.53;;;3.77;;
287;SDS011;128;48.770;9.198;2023-06-10T15:27:42;5.87;;;3.80;;
287;SDS011;128;48.770;9.198;2023-06-10T15:30:08;5.17;;;3.37;;
287;SDS011;128;48.770;9.198;2023-06-10T15:32:34;4.17;;;3.50;;
287;SDS011;128;48.770;9.198;2023-06-10T15:35:00;5.30;;;3.90;;
287;SDS011;128;48.770;9.198;2023-06-10T15:37:26;10.40;;;4.20;;
287;SDS011;128;48.770;9.198;2023-06-10T15:39:52;4.00;;;3.40;;
287;SDS011;128;48.770;9.198;2023-06-10T15:42:18;4.70;;;3.73;;
287;SDS011;128;48.770;9.198;2023-06-10T15:44:43;5.03;;;3.80;;
287;SDS011;128;48.770;9.198;2023-06-10T15:47:09;7.40;;;4.07;;
287;SDS011;128;48.770;9.198;2023-06-10T15:49:35;5.50;;;4.37;;